createdAt,value
2018-11-22T12:17:45.363Z,1.90
2018-11-22T12:20:15.306Z,1.80
2018-11-22T12:22:45.779Z,2.10
2018-11-22T12:25:16.112Z,2.30
2018-11-22T12:27:46.287Z,2.40
2018-11-22T12:30:17.864Z,2.10
2018-11-22T12:32:48.196Z,2.10
2018-11-22T12:35:22.481Z,1.90
2018-11-22T12:37:56.898Z,1.80
2018-11-22T12:40:25.978Z,1.80
2018-11-22T12:42:55.052Z,1.80
2018-11-22T12:45:24.378Z,1.50
2018-11-22T12:47:53.376Z,1.60
2018-11-22T12:50:22.464Z,1.60
2018-11-22T12:52:51.897Z,1.90
2018-11-22T12:55:20.996Z,1.90
2018-11-22T12:57:50.276Z,1.90
2018-11-22T13:00:19.510Z,2.00
2018-11-22T13:02:48.644Z,2.10
2018-11-22T13:05:18.774Z,2.20
2018-11-22T13:07:47.804Z,2.10
2018-11-22T13:10:18.046Z,2.20
2018-11-22T13:12:48.134Z,2.30
2018-11-22T13:15:18.449Z,2.30
2018-11-22T13:17:47.536Z,2.40
2018-11-22T13:20:18.162Z,2.30
2018-11-22T13:22:47.186Z,2.50
2018-11-22T13:25:18.194Z,2.20
2018-11-22T13:27:47.245Z,2.40
2018-11-22T13:30:18.305Z,2.30
2018-11-22T13:32:48.524Z,1.90
2018-11-22T13:35:18.484Z,1.80
2018-11-22T13:37:48.973Z,1.90
2018-11-22T13:40:18.913Z,2.20
2018-11-22T13:42:48.942Z,2.20
2018-11-22T13:45:20.290Z,1.90
2018-11-22T13:47:50.509Z,2.00
2018-11-22T13:50:22.323Z,1.90
2018-11-22T13:52:52.902Z,2.10
2018-11-22T13:55:21.969Z,2.20
2018-11-22T13:57:51.056Z,2.00
2018-11-22T14:00:22.034Z,1.90
2018-11-22T14:02:55.818Z,1.90
2018-11-22T14:05:24.974Z,1.80
2018-11-22T14:07:54.297Z,1.50
2018-11-22T14:10:23.417Z,1.50
2018-11-22T14:12:52.635Z,1.70
2018-11-22T14:15:23.216Z,1.50
2018-11-22T14:17:53.718Z,1.60
2018-11-22T14:20:24.424Z,1.70
2018-11-22T14:22:53.603Z,1.60
2018-11-22T14:25:22.651Z,1.60
2018-11-22T14:27:51.974Z,1.50
2018-11-22T14:30:23.873Z,1.70
2018-11-22T14:32:53.220Z,1.60
2018-11-22T14:35:23.192Z,1.70
2018-11-22T14:37:52.271Z,1.60
2018-11-22T14:40:22.786Z,1.70
2018-11-22T14:42:52.609Z,2.00
2018-11-22T14:45:22.134Z,1.90
2018-11-22T14:47:52.144Z,1.50
2018-11-22T14:50:24.137Z,1.60
2018-11-22T14:52:55.913Z,1.60
2018-11-22T14:55:25.030Z,1.60
2018-11-22T14:57:54.042Z,1.30
2018-11-22T15:00:29.770Z,1.60
2018-11-22T15:02:58.946Z,1.80
2018-11-22T15:05:28.024Z,1.80
2018-11-22T15:07:57.106Z,2.00
2018-11-22T15:10:26.144Z,1.80
2018-11-22T15:12:55.193Z,1.80
2018-11-22T15:15:25.469Z,1.80
2018-11-22T15:17:54.457Z,1.70
2018-11-22T15:20:23.556Z,1.60
2018-11-22T15:22:53.535Z,1.40
2018-11-22T15:25:24.253Z,1.60
2018-11-22T15:27:53.295Z,1.50
2018-11-22T15:30:24.454Z,1.70
2018-11-22T15:32:53.610Z,1.70
2018-11-22T15:35:24.495Z,1.60
2018-11-22T15:37:53.915Z,1.60
2018-11-22T15:40:24.317Z,1.60
2018-11-22T15:42:54.932Z,1.60
2018-11-22T15:45:25.230Z,1.50
2018-11-22T15:47:54.410Z,1.60
2018-11-22T15:50:24.729Z,1.60
2018-11-22T15:52:53.817Z,1.50
2018-11-22T15:55:23.725Z,1.50
2018-11-22T15:57:54.468Z,1.50
2018-11-22T16:00:27.018Z,1.60
2018-11-22T16:02:57.108Z,1.50
2018-11-22T16:05:30.021Z,1.30
2018-11-22T16:07:59.317Z,1.30
2018-11-22T16:10:30.364Z,1.60
2018-11-22T16:13:01.151Z,1.60
2018-11-22T16:15:34.621Z,1.70
2018-11-22T16:18:03.817Z,1.70
2018-11-22T16:20:32.856Z,1.70
2018-11-22T16:23:01.907Z,1.60
2018-11-22T16:25:30.945Z,1.60
2018-11-22T16:28:00.218Z,1.40
2018-11-22T16:30:30.724Z,1.40
2018-11-22T16:32:59.776Z,1.60
2018-11-22T16:35:33.415Z,1.70
2018-11-22T16:37:58.775Z,1.90
2018-11-22T16:40:28.850Z,1.80
2018-11-22T16:42:59.584Z,1.50
2018-11-22T16:45:31.132Z,1.50
2018-11-22T16:48:01.567Z,1.20
2018-11-22T16:50:31.588Z,1.30
2018-11-22T16:53:00.619Z,1.20
2018-11-22T16:55:29.765Z,1.30
2018-11-22T16:58:00.167Z,0.90
2018-11-22T17:00:36.725Z,1.00
2018-11-22T17:03:08.819Z,1.20
2018-11-22T17:05:38.135Z,1.30
2018-11-22T17:08:08.231Z,1.30
2018-11-22T17:10:37.653Z,1.40
2018-11-22T17:13:07.166Z,1.50
2018-11-22T17:15:37.997Z,1.60
2018-11-22T17:18:08.305Z,1.70
2018-11-22T17:20:37.365Z,1.80
2018-11-22T17:23:07.151Z,1.80
2018-11-22T17:25:37.337Z,1.70
2018-11-22T17:28:07.700Z,1.70
2018-11-22T17:30:38.321Z,1.70
2018-11-22T17:33:07.413Z,1.70
2018-11-22T17:35:36.822Z,1.70
2018-11-22T17:38:07.349Z,1.70
2018-11-22T17:40:37.927Z,1.70
2018-11-22T17:43:07.378Z,1.50
2018-11-22T17:45:38.798Z,1.60
2018-11-22T17:48:08.430Z,1.70
2018-11-22T17:50:39.232Z,1.60
2018-11-22T17:53:08.995Z,1.50
2018-11-22T17:55:38.081Z,1.50
2018-11-22T17:58:07.567Z,1.60
2018-11-22T18:00:39.288Z,1.30
2018-11-22T18:03:08.953Z,1.20
2018-11-22T18:05:38.112Z,1.20
2018-11-22T18:08:07.388Z,1.40
2018-11-22T18:10:38.269Z,1.40
2018-11-22T18:13:07.374Z,1.50
2018-11-22T18:15:41.358Z,1.50
2018-11-22T18:18:10.458Z,1.20
2018-11-22T18:20:39.508Z,1.20
2018-11-22T18:23:11.410Z,1.00
2018-11-22T18:25:38.108Z,1.20
2018-11-22T18:28:07.138Z,1.10
2018-11-22T18:30:36.231Z,0.90
2018-11-22T18:33:06.549Z,0.80
2018-11-22T18:35:35.676Z,0.70
2018-11-22T18:38:05.200Z,0.70
2018-11-22T18:40:37.900Z,0.90
2018-11-22T18:43:06.943Z,1.00
2018-11-22T18:45:38.643Z,1.10
2018-11-22T18:48:08.956Z,1.00
2018-11-22T18:50:38.936Z,1.00
2018-11-22T18:53:08.269Z,1.10
2018-11-22T18:55:37.417Z,1.10
2018-11-22T18:58:07.272Z,1.30
2018-11-22T19:00:37.772Z,1.20
2018-11-22T19:03:09.025Z,1.40
2018-11-22T19:05:38.069Z,1.20
2018-11-22T19:08:07.245Z,1.10
2018-11-22T19:10:39.215Z,1.20
2018-11-22T19:13:09.702Z,1.10
2018-11-22T19:15:40.297Z,0.80
2018-11-22T19:18:10.212Z,0.90
2018-11-22T19:20:40.702Z,0.90
2018-11-22T19:23:10.741Z,0.90
2018-11-22T19:25:39.839Z,0.90
2018-11-22T19:28:09.630Z,0.60
2018-11-22T19:30:40.447Z,0.50
2018-11-22T19:33:11.072Z,0.80
2018-11-22T19:35:42.674Z,0.90
2018-11-22T19:38:11.848Z,0.90
2018-11-22T19:40:41.673Z,1.20
2018-11-22T19:43:11.483Z,1.20
2018-11-22T19:45:42.036Z,1.00
2018-11-22T19:48:11.220Z,1.00
2018-11-22T19:50:40.392Z,1.00
2018-11-22T19:53:11.248Z,1.00
2018-11-22T19:55:40.796Z,1.10
2018-11-22T19:58:11.658Z,0.90
2018-11-22T20:00:40.995Z,1.00
2018-11-22T20:03:10.360Z,1.20
2018-11-22T20:05:40.773Z,1.30
2018-11-22T20:08:12.302Z,1.10
2018-11-22T20:10:43.937Z,1.00
2018-11-22T20:13:13.066Z,1.10
2018-11-22T20:15:42.110Z,1.10
2018-11-22T20:18:11.725Z,1.00
2018-11-22T20:20:41.099Z,1.10
2018-11-22T20:23:10.163Z,0.90
2018-11-22T20:25:39.356Z,0.90
2018-11-22T20:28:08.510Z,0.90
2018-11-22T20:30:39.190Z,0.90
2018-11-22T20:33:08.260Z,0.80
2018-11-22T20:35:37.637Z,0.80
2018-11-22T20:38:06.820Z,1.00
2018-11-22T20:40:35.916Z,1.20
2018-11-22T20:43:05.498Z,1.00
2018-11-22T20:45:40.676Z,1.10
2018-11-22T20:48:05.902Z,1.30
2018-11-22T20:50:35.469Z,1.30
2018-11-22T20:53:04.549Z,1.40
2018-11-22T20:55:37.113Z,1.10
2018-11-22T20:58:07.776Z,1.10
2018-11-22T21:00:41.193Z,1.00
2018-11-22T21:03:10.229Z,0.90
2018-11-22T21:05:39.259Z,0.60
2018-11-22T21:08:08.278Z,0.70
2018-11-22T21:10:37.312Z,0.70
2018-11-22T21:13:06.395Z,0.80
2018-11-22T21:15:36.064Z,0.80
2018-11-22T21:18:06.512Z,0.70
2018-11-22T21:20:36.988Z,0.70
2018-11-22T21:23:06.169Z,0.60
2018-11-22T21:25:35.216Z,0.60
2018-11-22T21:28:04.298Z,0.30
2018-11-22T21:30:34.753Z,0.40
2018-11-22T21:33:04.149Z,0.50
2018-11-22T21:35:33.660Z,0.20
2018-11-22T21:38:03.444Z,0.40
2018-11-22T21:40:33.236Z,0.50
2018-11-22T21:43:02.250Z,0.50
2018-11-22T21:45:32.110Z,0.40
2018-11-22T21:48:01.190Z,0.50
2018-11-22T21:50:30.340Z,0.20
2018-11-22T21:52:59.828Z,0.10
2018-11-22T21:55:29.620Z,0.10
2018-11-22T21:58:00.221Z,0.10
2018-11-22T22:00:33.417Z,0.40
2018-11-22T22:03:04.331Z,0.60
2018-11-22T22:05:33.669Z,0.60
2018-11-22T22:08:02.843Z,0.60
2018-11-22T22:10:31.909Z,0.70
2018-11-22T22:13:01.018Z,0.60
2018-11-22T22:15:31.278Z,0.70
2018-11-22T22:18:00.372Z,0.80
2018-11-22T22:20:31.294Z,0.80
2018-11-22T22:23:07.166Z,0.80
2018-11-22T22:25:35.948Z,0.80
2018-11-22T22:28:05.076Z,0.70
2018-11-22T22:30:34.811Z,0.90
2018-11-22T22:33:05.476Z,0.90
2018-11-22T22:35:34.537Z,1.00
2018-11-22T22:38:03.531Z,1.00
2018-11-22T22:40:33.485Z,1.00
2018-11-22T22:43:02.566Z,0.70
2018-11-22T22:45:32.385Z,0.50
2018-11-22T22:48:01.436Z,0.50
2018-11-22T22:50:31.192Z,0.60
2018-11-22T22:53:01.112Z,0.70
2018-11-22T22:55:30.784Z,0.70
2018-11-22T22:57:59.794Z,0.70
2018-11-22T23:00:36.427Z,0.40
2018-11-22T23:03:06.890Z,0.30
2018-11-22T23:05:36.523Z,0.50
2018-11-22T23:08:05.620Z,0.60
2018-11-22T23:10:34.642Z,0.60
2018-11-22T23:13:04.115Z,0.70
2018-11-22T23:15:33.238Z,0.50
2018-11-22T23:18:02.610Z,0.60
2018-11-22T23:20:34.094Z,0.50
2018-11-22T23:23:03.272Z,0.60
2018-11-22T23:25:32.305Z,0.60
2018-11-22T23:28:01.449Z,0.40
2018-11-22T23:30:32.044Z,0.20
2018-11-22T23:33:02.530Z,0.40
2018-11-22T23:35:31.572Z,0.50
2018-11-22T23:38:00.595Z,0.70
2018-11-22T23:40:30.686Z,0.50
2018-11-22T23:42:59.724Z,0.30
2018-11-22T23:45:30.042Z,0.30
2018-11-22T23:47:59.216Z,0.30
2018-11-22T23:50:29.741Z,0.30
2018-11-22T23:52:59.773Z,0.50
2018-11-22T23:55:28.861Z,0.30
2018-11-22T23:57:57.913Z,0.40
